createdAt,value
2023-05-22T00:02:50.941Z,8.88
2023-05-22T00:05:18.592Z,10.65
2023-05-22T00:07:46.211Z,8.82
2023-05-22T00:10:13.275Z,12.02
2023-05-22T00:12:40.504Z,14.82
2023-05-22T00:15:08.185Z,10.43
2023-05-22T00:17:35.498Z,7.63
2023-05-22T00:20:10.951Z,10.57
2023-05-22T00:22:38.969Z,9.95
2023-05-22T00:25:06.971Z,10.93
2023-05-22T00:27:35.023Z,7.95
2023-05-22T00:30:03.644Z,8.30
2023-05-22T00:32:32.702Z,8.97
2023-05-22T00:34:59.645Z,12.02
2023-05-22T00:37:26.644Z,9.80
2023-05-22T00:39:53.763Z,9.48
2023-05-22T00:42:23.885Z,8.40
2023-05-22T00:44:50.781Z,11.45
2023-05-22T00:47:21.780Z,9.23
2023-05-22T00:49:49.717Z,11.90
2023-05-22T00:52:18.094Z,9.68
2023-05-22T00:54:46.001Z,9.43
2023-05-22T00:57:13.342Z,9.27
2023-05-22T00:59:40.702Z,10.63
2023-05-22T01:02:09.014Z,8.98
2023-05-22T01:04:37.268Z,10.05
2023-05-22T01:07:06.183Z,9.68
2023-05-22T01:09:32.992Z,8.80
2023-05-22T01:12:14.462Z,10.18
2023-05-22T01:14:57.574Z,10.30
2023-05-22T01:17:34.932Z,11.70
2023-05-22T01:20:11.019Z,9.73
2023-05-22T01:23:06.064Z,8.38
2023-05-22T01:25:36.422Z,10.52
2023-05-22T01:28:17.184Z,11.05
2023-05-22T01:30:58.535Z,12.90
2023-05-22T01:33:28.833Z,10.80
2023-05-22T01:35:59.141Z,9.15
2023-05-22T01:38:27.697Z,13.85
2023-05-22T01:40:56.025Z,10.88
2023-05-22T01:43:22.884Z,11.55
2023-05-22T01:45:50.042Z,12.70
2023-05-22T01:48:16.824Z,10.82
2023-05-22T01:50:46.485Z,12.88
2023-05-22T01:55:55.956Z,11.07
2023-05-22T01:58:38.694Z,12.15
2023-05-22T02:01:10.228Z,12.23
2023-05-22T02:03:39.767Z,10.88
2023-05-22T02:06:09.272Z,10.05
2023-05-22T02:08:39.951Z,22.80
2023-05-22T02:11:11.245Z,14.63
2023-05-22T02:13:38.328Z,12.15
2023-05-22T02:16:06.318Z,13.52
2023-05-22T02:18:33.721Z,14.48
2023-05-22T02:21:03.257Z,12.05
2023-05-22T02:23:32.072Z,11.25
2023-05-22T02:25:58.898Z,13.63
2023-05-22T02:28:27.650Z,11.93
2023-05-22T02:30:54.396Z,12.05
2023-05-22T02:33:21.514Z,13.10
2023-05-22T02:35:50.040Z,11.85
2023-05-22T02:38:17.145Z,15.73
2023-05-22T02:40:44.777Z,12.95
2023-05-22T02:43:11.669Z,18.23
2023-05-22T02:45:38.494Z,13.88
2023-05-22T02:48:06.481Z,14.50
2023-05-22T02:50:33.306Z,13.75
2023-05-22T02:53:00.355Z,14.40
2023-05-22T02:55:27.044Z,16.15
2023-05-22T02:57:53.869Z,15.48
2023-05-22T03:00:23.493Z,14.73
2023-05-22T03:05:18.583Z,13.93
2023-05-22T03:07:49.127Z,13.85
2023-05-22T03:10:16.193Z,13.70
2023-05-22T03:12:42.979Z,20.90
2023-05-22T03:15:11.214Z,15.02
2023-05-22T03:20:08.586Z,19.38
2023-05-22T03:22:35.612Z,16.67
2023-05-22T03:25:02.983Z,20.13
2023-05-22T03:27:29.852Z,15.15
2023-05-22T03:29:56.837Z,15.05
2023-05-22T03:32:24.154Z,15.38
2023-05-22T03:34:50.994Z,14.90
2023-05-22T03:37:17.812Z,13.50
2023-05-22T03:39:44.948Z,16.17
2023-05-22T03:42:21.798Z,19.33
2023-05-22T03:44:50.046Z,19.45
2023-05-22T03:47:18.252Z,19.45
2023-05-22T03:49:45.974Z,16.08
2023-05-22T03:52:12.766Z,16.20
2023-05-22T03:54:39.407Z,17.13
2023-05-22T03:57:06.330Z,14.30
2023-05-22T03:59:33.147Z,14.65
2023-05-22T04:02:01.341Z,17.35
2023-05-22T04:04:29.738Z,15.82
2023-05-22T04:06:58.190Z,15.65
2023-05-22T04:09:32.012Z,16.83
2023-05-22T04:11:58.889Z,15.32
2023-05-22T04:14:27.870Z,19.27
2023-05-22T04:16:55.151Z,16.83
2023-05-22T04:19:22.378Z,15.38
2023-05-22T04:21:49.306Z,20.55
2023-05-22T04:24:18.518Z,14.85
2023-05-22T04:26:45.237Z,16.00
2023-05-22T04:29:14.625Z,14.68
2023-05-22T04:31:42.204Z,16.90
2023-05-22T04:34:15.120Z,21.40
2023-05-22T04:36:45.195Z,19.42
2023-05-22T04:39:13.909Z,12.07
2023-05-22T04:41:41.056Z,15.15
2023-05-22T04:44:07.882Z,15.07
2023-05-22T04:46:36.010Z,12.32
2023-05-22T04:49:03.250Z,17.58
2023-05-22T04:51:31.342Z,14.35
2023-05-22T04:53:58.536Z,16.88
2023-05-22T04:56:35.336Z,17.20
2023-05-22T04:59:05.655Z,15.27
2023-05-22T05:04:03.788Z,17.35
2023-05-22T05:06:30.800Z,25.17
2023-05-22T05:08:58.170Z,21.35
2023-05-22T05:11:25.176Z,20.30
2023-05-22T05:13:52.037Z,16.65
2023-05-22T05:16:20.630Z,17.55
2023-05-22T05:18:47.525Z,27.25
2023-05-22T05:21:15.220Z,18.48
2023-05-22T05:23:42.706Z,19.63
2023-05-22T05:26:09.588Z,21.80
2023-05-22T05:28:37.839Z,19.73
2023-05-22T05:31:07.853Z,18.27
2023-05-22T05:33:52.124Z,23.05
2023-05-22T05:36:31.704Z,19.50
2023-05-22T05:38:59.176Z,21.03
2023-05-22T05:41:26.791Z,22.38
2023-05-22T05:44:01.489Z,21.67
2023-05-22T05:46:31.340Z,18.27
2023-05-22T05:48:58.798Z,23.20
2023-05-22T05:51:26.585Z,22.27
2023-05-22T05:53:53.499Z,24.00
2023-05-22T05:56:21.342Z,19.23
2023-05-22T05:58:48.463Z,25.20
2023-05-22T06:01:35.263Z,21.20
2023-05-22T06:04:05.467Z,19.33
2023-05-22T06:06:36.892Z,22.13
2023-05-22T06:09:06.776Z,23.42
2023-05-22T06:11:46.455Z,23.20
2023-05-22T06:14:13.352Z,18.55
2023-05-22T06:16:40.758Z,16.90
2023-05-22T06:19:08.201Z,21.15
2023-05-22T06:21:35.182Z,19.98
2023-05-22T06:24:02.032Z,18.92
2023-05-22T06:26:30.657Z,21.88
2023-05-22T06:28:57.487Z,18.52
2023-05-22T06:31:25.150Z,23.08
2023-05-22T06:33:55.650Z,18.77
2023-05-22T06:36:24.229Z,22.10
2023-05-22T06:38:54.771Z,27.38
2023-05-22T06:41:53.698Z,19.60
2023-05-22T06:44:20.894Z,29.55
2023-05-22T06:46:55.937Z,20.92
2023-05-22T06:49:24.773Z,22.67
2023-05-22T06:51:54.052Z,24.17
2023-05-22T06:54:21.565Z,21.13
2023-05-22T06:56:52.417Z,20.08
2023-05-22T06:59:20.722Z,24.33
2023-05-22T07:02:03.112Z,21.77
2023-05-22T07:04:37.679Z,24.23
2023-05-22T07:07:12.853Z,19.45
2023-05-22T07:09:42.882Z,21.30
2023-05-22T07:12:10.352Z,20.45
2023-05-22T07:14:37.396Z,16.02
2023-05-22T07:17:06.639Z,16.63
2023-05-22T07:19:39.935Z,19.23
2023-05-22T07:22:06.704Z,17.67
2023-05-22T07:24:35.755Z,19.35
2023-05-22T07:27:04.697Z,16.42
2023-05-22T07:29:33.795Z,18.75
2023-05-22T07:32:01.566Z,21.45
2023-05-22T07:34:34.179Z,21.05
2023-05-22T07:37:14.301Z,16.45
2023-05-22T07:39:43.523Z,19.45
2023-05-22T07:42:10.420Z,15.32
2023-05-22T07:44:43.707Z,17.80
2023-05-22T07:47:10.600Z,11.93
2023-05-22T07:49:37.476Z,13.05
2023-05-22T07:52:04.460Z,12.32
2023-05-22T07:54:31.413Z,15.60
2023-05-22T07:56:58.470Z,14.20
2023-05-22T07:59:29.921Z,15.07
2023-05-22T08:01:59.022Z,13.07
2023-05-22T08:04:26.328Z,13.63
2023-05-22T08:06:53.425Z,12.80
2023-05-22T08:09:21.596Z,15.68
2023-05-22T08:11:48.771Z,11.18
2023-05-22T08:14:15.682Z,11.43
2023-05-22T08:16:42.529Z,11.73
2023-05-22T08:19:09.393Z,13.48
2023-05-22T08:21:37.758Z,20.52
2023-05-22T08:24:04.805Z,14.63
2023-05-22T08:26:33.482Z,13.02
2023-05-22T08:29:00.971Z,11.80
2023-05-22T08:31:34.359Z,9.85
2023-05-22T08:34:04.995Z,16.77
2023-05-22T08:36:34.035Z,12.98
2023-05-22T08:39:01.598Z,10.23
2023-05-22T08:41:29.649Z,10.05
2023-05-22T08:43:56.649Z,13.47
2023-05-22T08:46:28.219Z,9.55
2023-05-22T08:49:01.459Z,13.00
2023-05-22T08:51:31.516Z,9.23
2023-05-22T08:53:59.242Z,9.85
2023-05-22T08:56:28.680Z,9.88
2023-05-22T08:58:59.999Z,12.32
2023-05-22T09:01:30.991Z,13.93
2023-05-22T09:04:03.821Z,14.57
2023-05-22T09:06:33.947Z,12.88
2023-05-22T09:09:01.643Z,14.75
2023-05-22T09:11:28.384Z,14.05
2023-05-22T09:14:11.665Z,10.98
2023-05-22T09:16:49.284Z,12.55
2023-05-22T09:19:17.634Z,12.30
2023-05-22T09:21:44.633Z,11.47
2023-05-22T09:24:11.901Z,12.82
2023-05-22T09:26:39.727Z,16.83
2023-05-22T09:29:10.001Z,15.00
2023-05-22T09:31:44.148Z,15.20
2023-05-22T09:34:15.963Z,13.68
2023-05-22T09:36:43.118Z,12.80
2023-05-22T09:39:09.946Z,8.95
2023-05-22T09:41:40.007Z,11.30
2023-05-22T09:44:14.471Z,13.63
2023-05-22T09:46:47.473Z,10.07
2023-05-22T09:49:16.797Z,10.23
2023-05-22T09:54:15.528Z,13.60
2023-05-22T09:56:44.352Z,11.68
2023-05-22T09:59:13.881Z,9.63
2023-05-22T10:01:42.937Z,10.13
2023-05-22T10:04:14.062Z,12.55
2023-05-22T10:06:43.041Z,12.52
2023-05-22T10:09:19.016Z,24.38
2023-05-22T10:11:47.330Z,13.93
2023-05-22T10:14:15.062Z,12.02
2023-05-22T10:16:44.967Z,16.77
2023-05-22T10:19:13.223Z,14.10
2023-05-22T10:21:44.318Z,14.73
2023-05-22T10:24:12.281Z,13.20
2023-05-22T10:26:39.622Z,13.27
2023-05-22T10:29:17.940Z,12.80
2023-05-22T10:32:06.693Z,16.95
2023-05-22T10:34:54.013Z,14.90
2023-05-22T10:37:47.256Z,11.75
2023-05-22T10:40:19.562Z,10.05
2023-05-22T10:42:46.904Z,10.43
2023-05-22T10:45:13.908Z,10.57
2023-05-22T10:47:40.750Z,10.55
2023-05-22T10:50:10.180Z,9.48
2023-05-22T10:52:38.158Z,8.85
2023-05-22T10:55:09.508Z,9.00
2023-05-22T10:57:40.146Z,9.15
2023-05-22T11:00:09.666Z,13.75
2023-05-22T11:02:44.699Z,9.48
2023-05-22T11:05:19.519Z,12.82
2023-05-22T11:07:46.256Z,9.98
2023-05-22T11:10:13.412Z,13.98
2023-05-22T11:12:41.503Z,20.23
2023-05-22T11:15:09.780Z,8.65
2023-05-22T11:17:39.945Z,12.15
2023-05-22T11:20:13.287Z,10.05
2023-05-22T11:22:43.109Z,12.98
2023-05-22T11:25:12.114Z,16.67
2023-05-22T11:27:41.310Z,10.90
2023-05-22T11:30:09.363Z,14.85
2023-05-22T11:32:41.350Z,6.88
2023-05-22T11:35:08.975Z,9.50
2023-05-22T11:37:42.670Z,11.20
2023-05-22T11:40:10.891Z,10.05
2023-05-22T11:42:37.986Z,8.05
2023-05-22T11:45:05.831Z,8.32
2023-05-22T11:47:33.160Z,7.90
2023-05-22T11:50:01.162Z,10.80
2023-05-22T11:52:36.742Z,7.32
2023-05-22T11:55:08.237Z,7.95
2023-05-22T11:57:35.768Z,6.82
2023-05-22T12:00:06.266Z,7.60
2023-05-22T12:02:39.366Z,10.35
2023-05-22T12:05:07.230Z,8.98
2023-05-22T12:07:34.145Z,6.88
2023-05-22T12:10:01.415Z,5.78
2023-05-22T12:12:28.532Z,9.88
2023-05-22T12:14:57.641Z,9.32
2023-05-22T12:17:24.487Z,6.82
2023-05-22T12:19:53.250Z,6.07
2023-05-22T12:22:21.891Z,7.32
2023-05-22T12:24:52.537Z,7.38
2023-05-22T12:27:20.013Z,9.88
2023-05-22T12:29:46.899Z,9.98
2023-05-22T12:32:14.119Z,8.52
2023-05-22T12:34:46.179Z,6.88
2023-05-22T12:37:25.157Z,7.82
2023-05-22T12:39:56.768Z,10.60
2023-05-22T12:42:24.649Z,8.25
2023-05-22T12:44:54.585Z,7.25
2023-05-22T12:47:23.508Z,7.28
2023-05-22T12:52:17.853Z,10.05
2023-05-22T12:54:44.693Z,7.68
2023-05-22T12:57:11.625Z,8.70
2023-05-22T12:59:38.540Z,8.52
2023-05-22T13:02:05.871Z,7.47
2023-05-22T13:04:33.141Z,9.40
2023-05-22T13:07:00.147Z,7.75
2023-05-22T13:09:27.521Z,9.27
2023-05-22T13:11:55.466Z,8.45
2023-05-22T13:14:22.613Z,8.40
2023-05-22T13:16:49.514Z,10.40
2023-05-22T13:19:17.111Z,12.70
2023-05-22T13:21:44.123Z,10.45
2023-05-22T13:24:11.026Z,8.98
2023-05-22T13:26:37.950Z,9.80
2023-05-22T13:29:04.975Z,9.63
2023-05-22T13:31:37.175Z,8.23
2023-05-22T13:34:04.777Z,9.40
2023-05-22T13:36:31.716Z,11.00
2023-05-22T13:38:58.663Z,10.40
2023-05-22T13:41:25.850Z,7.50
2023-05-22T13:43:54.329Z,10.50
2023-05-22T13:46:21.958Z,10.73
2023-05-22T13:48:48.963Z,7.55
2023-05-22T13:51:15.771Z,11.32
2023-05-22T13:53:42.556Z,7.50
2023-05-22T13:56:09.318Z,9.98
2023-05-22T13:58:36.091Z,9.02
2023-05-22T14:01:02.902Z,8.68
2023-05-22T14:03:29.707Z,7.90
2023-05-22T14:05:56.763Z,8.90
2023-05-22T14:08:24.847Z,13.88
2023-05-22T14:10:52.103Z,9.27
2023-05-22T14:13:19.499Z,12.45
2023-05-22T14:15:47.106Z,7.72
2023-05-22T14:18:14.628Z,10.85
2023-05-22T14:20:41.515Z,13.40
2023-05-22T14:23:08.987Z,7.60
2023-05-22T14:25:35.825Z,12.50
2023-05-22T14:28:02.656Z,9.35
2023-05-22T14:30:30.975Z,10.05
2023-05-22T14:32:58.096Z,10.20
2023-05-22T14:35:24.926Z,7.00
2023-05-22T14:37:51.718Z,8.00
2023-05-22T14:40:19.456Z,11.75
2023-05-22T14:42:46.295Z,16.27
2023-05-22T14:45:13.053Z,9.32
2023-05-22T14:47:42.087Z,10.65
2023-05-22T14:50:18.917Z,5.85
2023-05-22T14:52:50.376Z,13.80
2023-05-22T14:55:18.938Z,6.32
2023-05-22T14:57:45.749Z,10.77
2023-05-22T15:00:14.290Z,10.68
2023-05-22T15:02:41.967Z,14.05
2023-05-22T15:05:09.735Z,6.75
2023-05-22T15:10:07.533Z,9.75
2023-05-22T15:12:34.365Z,10.48
2023-05-22T15:15:01.887Z,9.82
2023-05-22T15:17:28.712Z,8.38
2023-05-22T15:19:55.611Z,10.23
2023-05-22T15:22:22.367Z,9.15
2023-05-22T15:25:02.350Z,8.95
2023-05-22T15:27:29.928Z,14.00
2023-05-22T15:29:56.872Z,11.13
2023-05-22T15:32:24.176Z,12.93
2023-05-22T15:34:51.791Z,9.80
2023-05-22T15:37:19.442Z,10.48
2023-05-22T15:39:46.511Z,10.90
2023-05-22T15:42:13.522Z,10.15
2023-05-22T15:44:49.355Z,11.57
2023-05-22T15:47:18.630Z,9.68
2023-05-22T15:49:49.093Z,10.88
2023-05-22T15:52:16.962Z,9.77
2023-05-22T15:54:46.989Z,8.93
2023-05-22T15:57:15.143Z,11.93
2023-05-22T15:59:47.607Z,8.93
2023-05-22T16:04:45.190Z,8.35
2023-05-22T16:07:12.476Z,13.18
2023-05-22T16:09:39.789Z,13.15
2023-05-22T16:12:10.410Z,13.80
2023-05-22T16:14:39.818Z,10.75
2023-05-22T16:17:09.429Z,11.70
2023-05-22T16:22:03.911Z,9.40
2023-05-22T16:24:31.074Z,9.27
2023-05-22T16:27:04.050Z,6.78
2023-05-22T16:29:32.642Z,9.38
2023-05-22T16:31:59.576Z,10.88
2023-05-22T16:34:26.630Z,5.70
2023-05-22T16:36:53.433Z,11.30
2023-05-22T16:39:20.412Z,6.25
2023-05-22T16:41:47.533Z,8.60
2023-05-22T16:44:14.641Z,11.23
2023-05-22T16:46:41.594Z,5.90
2023-05-22T16:49:08.762Z,9.18
2023-05-22T16:51:35.640Z,9.05
2023-05-22T16:54:05.239Z,8.70
2023-05-22T16:56:35.167Z,6.55
2023-05-22T16:59:02.460Z,6.38
2023-05-22T17:01:29.752Z,6.10
2023-05-22T17:03:58.161Z,9.10
2023-05-22T17:06:25.014Z,6.60
2023-05-22T17:08:52.246Z,7.63
2023-05-22T17:11:20.027Z,6.60
2023-05-22T17:13:49.647Z,8.30
2023-05-22T17:16:16.899Z,5.57
2023-05-22T17:18:44.601Z,5.60
2023-05-22T17:21:14.425Z,8.00
2023-05-22T17:23:43.732Z,6.50
2023-05-22T17:26:13.335Z,7.53
2023-05-22T17:28:40.719Z,4.68
2023-05-22T17:31:08.703Z,7.03
2023-05-22T17:33:36.385Z,4.63
2023-05-22T17:36:03.775Z,10.93
2023-05-22T17:38:31.236Z,9.70
2023-05-22T17:40:59.654Z,7.53
2023-05-22T17:43:26.967Z,9.13
2023-05-22T17:45:54.686Z,5.30
2023-05-22T17:48:27.512Z,8.57
2023-05-22T17:50:55.016Z,7.57
2023-05-22T17:53:32.235Z,9.07
2023-05-22T17:55:58.969Z,10.50
2023-05-22T17:58:29.587Z,10.15
2023-05-22T18:00:56.511Z,7.72
2023-05-22T18:03:25.388Z,9.25
2023-05-22T18:05:52.647Z,15.23
2023-05-22T18:08:21.422Z,11.95
2023-05-22T18:10:50.924Z,10.82
2023-05-22T18:13:19.305Z,10.60
2023-05-22T18:15:46.793Z,8.85
2023-05-22T18:18:13.964Z,15.32
2023-05-22T18:20:41.007Z,8.70
2023-05-22T18:23:08.000Z,9.70
2023-05-22T18:25:34.936Z,11.40
2023-05-22T18:28:01.758Z,14.80
2023-05-22T18:30:28.631Z,13.90
2023-05-22T18:32:55.836Z,9.60
2023-05-22T18:35:22.697Z,10.35
2023-05-22T18:37:49.531Z,12.55
2023-05-22T18:40:16.553Z,14.52
2023-05-22T18:42:43.545Z,12.73
2023-05-22T18:45:13.669Z,16.52
2023-05-22T18:47:40.680Z,13.68
2023-05-22T18:50:09.379Z,15.23
2023-05-22T18:52:36.145Z,15.03
2023-05-22T18:55:02.938Z,15.50
2023-05-22T18:57:29.716Z,16.35
2023-05-22T18:59:56.669Z,15.63
2023-05-22T19:02:23.931Z,14.02
2023-05-22T19:04:51.183Z,15.27
2023-05-22T19:07:18.218Z,18.35
2023-05-22T19:09:45.547Z,14.38
2023-05-22T19:12:12.765Z,18.52
2023-05-22T19:14:40.949Z,16.42
2023-05-22T19:17:07.918Z,17.77
2023-05-22T19:19:34.874Z,22.15
2023-05-22T19:22:01.917Z,22.52
2023-05-22T19:24:29.413Z,20.83
2023-05-22T19:26:56.403Z,19.15
2023-05-22T19:29:23.511Z,21.05
2023-05-22T19:31:50.710Z,23.38
2023-05-22T19:34:17.698Z,19.48
2023-05-22T19:36:44.693Z,16.48
2023-05-22T19:39:11.682Z,15.73
2023-05-22T19:41:38.916Z,17.83
2023-05-22T19:44:05.873Z,20.58
2023-05-22T19:46:33.848Z,20.27
2023-05-22T19:49:00.934Z,17.60
2023-05-22T19:51:30.378Z,18.65
2023-05-22T19:53:57.181Z,22.75
2023-05-22T19:56:24.136Z,21.02
2023-05-22T19:58:52.205Z,23.42
2023-05-22T20:01:19.102Z,22.83
2023-05-22T20:03:46.614Z,18.75
2023-05-22T20:06:13.997Z,21.63
2023-05-22T20:08:41.549Z,20.73
2023-05-22T20:11:08.859Z,22.05
2023-05-22T20:13:35.750Z,17.55
2023-05-22T20:16:03.629Z,24.83
2023-05-22T20:18:32.305Z,22.23
2023-05-22T20:20:59.193Z,20.90
2023-05-22T20:23:26.399Z,22.60
2023-05-22T20:25:53.371Z,21.90
2023-05-22T20:28:21.842Z,24.58
2023-05-22T20:30:50.266Z,22.35
2023-05-22T20:33:17.944Z,24.33
2023-05-22T20:35:49.261Z,27.40
2023-05-22T20:38:19.062Z,24.17
2023-05-22T20:40:47.657Z,25.77
2023-05-22T20:43:14.847Z,27.37
2023-05-22T20:45:45.694Z,27.20
2023-05-22T20:48:14.364Z,28.90
2023-05-22T20:50:42.285Z,26.20
2023-05-22T20:53:09.354Z,29.70
2023-05-22T20:55:36.270Z,29.77
2023-05-22T20:58:05.243Z,29.30
2023-05-22T21:00:32.101Z,29.50
2023-05-22T21:03:01.245Z,36.88
2023-05-22T21:05:28.772Z,36.47
2023-05-22T21:07:56.962Z,34.97
2023-05-22T21:10:24.114Z,38.00
2023-05-22T21:12:52.780Z,38.13
2023-05-22T21:15:20.276Z,42.83
2023-05-22T21:17:47.806Z,39.50
2023-05-22T21:20:16.368Z,43.90
2023-05-22T21:22:45.482Z,42.50
2023-05-22T21:25:12.537Z,44.45
2023-05-22T21:27:39.415Z,50.58
2023-05-22T21:30:07.006Z,45.95
2023-05-22T21:32:34.025Z,41.88
2023-05-22T21:35:01.366Z,50.03
2023-05-22T21:37:28.401Z,49.83
2023-05-22T21:39:55.396Z,51.70
2023-05-22T21:42:22.575Z,54.65
2023-05-22T21:44:49.389Z,59.17
2023-05-22T21:47:16.291Z,60.50
2023-05-22T21:49:43.279Z,54.00
2023-05-22T21:52:10.205Z,53.70
2023-05-22T21:54:37.205Z,54.03
2023-05-22T21:57:04.106Z,58.42
2023-05-22T21:59:30.975Z,59.90
2023-05-22T22:01:57.972Z,61.53
2023-05-22T22:04:24.754Z,62.78
2023-05-22T22:06:51.461Z,57.40
2023-05-22T22:09:18.133Z,69.05
2023-05-22T22:11:45.985Z,64.45
2023-05-22T22:14:12.730Z,70.53
2023-05-22T22:16:40.740Z,62.30
2023-05-22T22:19:07.662Z,73.88
2023-05-22T22:21:35.016Z,66.82
2023-05-22T22:24:01.832Z,62.85
2023-05-22T22:26:30.053Z,67.45
2023-05-22T22:28:57.668Z,67.47
2023-05-22T22:31:24.654Z,66.28
2023-05-22T22:33:51.487Z,69.13
2023-05-22T22:36:18.367Z,66.50
2023-05-22T22:38:45.227Z,64.88
2023-05-22T22:41:12.077Z,72.97
2023-05-22T22:43:38.829Z,77.78
2023-05-22T22:46:05.742Z,70.28
2023-05-22T22:48:33.736Z,69.60
2023-05-22T22:51:00.696Z,69.88
2023-05-22T22:53:27.415Z,69.25
2023-05-22T22:55:59.253Z,61.08
2023-05-22T22:58:26.224Z,70.65
2023-05-22T23:00:53.141Z,66.47
2023-05-22T23:03:20.252Z,71.97
2023-05-22T23:05:47.101Z,68.97
2023-05-22T23:08:13.969Z,73.70
2023-05-22T23:10:43.599Z,66.35
2023-05-22T23:19:24.157Z,70.45
2023-05-22T23:21:51.980Z,68.10
2023-05-22T23:24:18.878Z,68.97
2023-05-22T23:26:45.715Z,67.10
2023-05-22T23:29:12.655Z,72.22
2023-05-22T23:31:41.131Z,62.45
2023-05-22T23:34:07.964Z,60.80
2023-05-22T23:36:34.868Z,67.15
2023-05-22T23:39:01.660Z,62.00
2023-05-22T23:41:28.397Z,68.40
2023-05-22T23:43:55.189Z,63.97
2023-05-22T23:46:22.016Z,55.55
2023-05-22T23:48:48.837Z,58.38
2023-05-22T23:51:16.992Z,59.03
2023-05-22T23:53:43.842Z,53.35
2023-05-22T23:56:10.986Z,58.20
2023-05-22T23:58:38.538Z,58.95
